Record high temperature 100.8°F Record low temperature -75.5°F Record high gust 121.0 mph Record high average 61.8 mph Record daily rain 2.61 in. Record low windchill -106.6°F Record high barometer 31.889 in. Record low barometer 23.642 in.
Daily high pressure 30.091 in. Daily low pressure 30.023 in. Daily low windchill 24.1°F Daily high heat index 48.1°F Daily high gust speed 6.3 mph SSE Daily high average speed 3.4 mph SE
Weather Data
LAST READING AT TIME: 14:40 PM DATE: December 18 2014, time of next update: 02:50 pm
Current WeatherDry Current Temperature 46.0°F (7.8°C), Apparent temp 43.8°F
Maximum Temperature (since midnight)48.1°F at: 1:17 PM Minimum Temperature (since midnight)24.1°F at: 6:05 AM
Average windspeed (ten minute)0.2 mph Wind Direction (ten minute)SSE (158°)
Windchill Temperature 46.0°F Maximum Gust (last hour)3.2 mph at: 1:40 PM
Maximum Gust (since midnight)6.3 mph at: 1:13 PM Maximum 1 minute average (since midnight)3.4 mph at: 12:54 PM
Rainfall (last hour)0.00 in. (0.0 mm) Rainfall (since midnight)0.02 in. (0.5 mm) at 9:52 AM
Rainfall This month 0.04 in. (1.0 mm) Rainfall To date this year 9.30 in. (236.1 mm)
Maximum rain per minute (last hour)0.00 in/min Maximum rain per hour (last 6 hours)0.02 in/hour
Yesterdays rainfall 0.00 in DewPoint 30.7°F (Wet Bulb :40.1°F )
Humidity 55 %, Humidex 41.8°F Barometer corrected to msl30.030 in. (1016.9 hPa)
Pressure change 0.00 in. (last hour) Trend (last hour)STEADY
Pressure change (last 12 hours)-0.01 in Pressure change (last 6 hours)-0.04 in

This page is updated from recent data collected by a DAVIS WMII weather station Use the Reload or Refresh facility on your browser to retrieve the latest data.


Click here for the last 24 hour graph
Click here for the last 48 hour graph
Click here for the last 72 hour graph
Click here for the month to date graph


Weather report/warning/Metars

COLORADO SPRINGS MUNI, CO, United States (KCOS) 38-49N 104-43W 1856M
Dec 18, 2014 - 03:54 PM EST / 2014.12.18 2054 UTC
Wind: Variable at 5 MPH (4 KT):0
Visibility: 10 mile(s):0
Sky conditions: partly cloudy
Temperature: 41.0 F (5.0 C)
Dew Point: 26.1 F (-3.3 C)
Relative Humidity: 54%
Pressure (altimeter): 29.99 in. Hg (1015 hPa)
Pressure tendency: 0.05 inches (1.7 hPa) lower than three hours ago
ob: KCOS 182054Z VRB04KT 10SM SCT027 SCT250 05/M03 A2999 RMK AO2 SLP169 T00501033 56017
cycle: 21
Air Force Academy, CO, United States (KAFF) 38-58N 104-49W 1999M
Dec 18, 2014 - 03:58 PM EST / 2014.12.18 2058 UTC
Wind: from the S (170 degrees) at 6 MPH (5 KT):0
Visibility: 10 mile(s):0
Sky conditions: partly cloudy
Temperature: 40.8 F (4.9 C)
Dew Point: 24.3 F (-4.3 C)
Relative Humidity: 51%
Pressure (altimeter): 29.98 in. Hg (1015 hPa)
Pressure tendency: 0.05 inches (1.6 hPa) lower than three hours ago
ob: KAFF 182058Z 17005KT 10SM FEW018 FEW030 FEW050 SCT200 05/M04 A2998 RMK AO2A SLP153 T00491043 57016
cycle: 21
Fort Carson, CO, United States (KFCS) 38-42N 104-46W 1789M
Dec 18, 2014 - 03:58 PM EST / 2014.12.18 2058 UTC
Wind: Variable at 6 MPH (5 KT):0
Visibility: 10 mile(s):0
Sky conditions: mostly cloudy
Temperature: 43.5 F (6.4 C)
Dew Point: 30.0 F (-1.1 C)
Relative Humidity: 58%
Pressure (altimeter): 29.98 in. Hg (1015 hPa)
Pressure tendency: 0.05 inches (1.6 hPa) lower than three hours ago
ob: KFCS 182058Z AUTO VRB05KT 10SM BKN028 06/M01 A2998 RMK AO2 BKN V SCT SLP192 T00641011 57016
cycle: 21



The data is logged at two minute intervals, but there is data recorded every minute. Best viewed in 800 x 600 and True colour.

Use the RELOAD facility on your browser to retrieve the latest data.

Click here for a daily update of the averages/extremes to date for the month
Created by "Weather Display" software version 10.37R Build 78 at this start time/date 03:24 am 12/11/2014